Time;durP1;ratioP1;P1;durP2;ratioP2;P2;SDS_P1;SDS_P2;PMS_P1;PMS_P2;Temp;Humidity;BMP_temperature;BMP_pressure;BME280_temperature;BME280_humidity;BME280_pressure;Samples;Min_cycle;Max_cycle;Signal;HPM_P1;HPM_P2
2023/01/14 00:01:44;;;;;;;;;10.50;8.75;;;;;11.16;63.29;101445.53;5084421;27;45456;-70
2023/01/14 00:04:10;;;;;;;;;5.00;5.00;;;;;11.16;63.59;101445.53;5089684;27;45417;-67
2023/01/14 00:06:36;;;;;;;;;8.00;5.33;;;;;11.16;63.83;101445.53;5065800;27;45557;-70
2023/01/14 00:09:05;;;;;;;;;5.33;5.00;;;;;11.04;63.72;101423.72;5072097;27;45485;-69
2023/01/14 00:11:45;;;;;;;;;6.00;4.00;;;;;11.15;64.15;101440.13;5069445;27;45458;-70
2023/01/14 00:14:20;;;;;;;;;2.00;2.00;;;;;11.11;64.42;101435.53;5049007;27;45484;-66
2023/01/14 00:16:46;;;;;;;;;12.25;8.50;;;;;11.04;64.58;101427.28;5074459;27;45527;-70
2023/01/14 00:19:13;;;;;;;;;8.67;6.00;;;;;11.11;65.35;101439.13;5070730;27;45769;-68
2023/01/14 00:21:40;;;;;;;;;5.67;5.67;;;;;11.01;65.08;101407.56;5080540;27;45897;-69
2023/01/14 00:24:06;;;;;;;;;8.33;5.00;;;;;11.14;65.77;101419.59;5068978;27;46179;-71
2023/01/14 00:26:32;;;;;;;;;7.67;5.67;;;;;11.16;65.75;101421.47;5082335;27;45208;-70
2023/01/14 00:28:57;;;;;;;;;6.33;5.00;;;;;11.16;65.44;101409.88;5084125;27;45509;-70
2023/01/14 00:31:26;;;;;;;;;4.67;3.33;;;;;11.17;66.08;101401.91;5084287;27;45436;-69
2023/01/14 00:33:54;;;;;;;;;4.33;4.00;;;;;11.21;66.89;101403.81;5102114;27;45382;-71
2023/01/14 00:36:23;;;;;;;;;21.25;16.00;;;;;11.24;66.64;101401.25;5069830;27;45503;-70
2023/01/14 00:38:48;;;;;;;;;7.00;7.00;;;;;11.24;66.86;101400.34;5074326;27;45548;-71
2023/01/14 00:41:16;;;;;;;;;10.75;5.00;;;;;11.24;67.95;101397.66;5070298;27;45525;-70
2023/01/14 00:43:44;;;;;;;;;2.00;1.67;;;;;11.22;69.04;101388.69;5079278;27;46161;-70
2023/01/14 00:46:12;;;;;;;;;2.00;2.00;;;;;11.05;69.98;101346.22;5077843;27;45484;-71
2023/01/14 00:48:38;;;;;;;;;3.00;3.00;;;;;11.21;70.51;101373.47;5079919;27;45609;-72
2023/01/14 00:51:04;;;;;;;;;5.33;4.33;;;;;11.24;71.26;101376.25;5076871;27;46169;-72
2023/01/14 00:53:30;;;;;;;;;4.33;4.33;;;;;11.24;71.06;101365.56;5073103;27;46216;-72
2023/01/14 00:55:56;;;;;;;;;4.00;3.00;;;;;11.16;71.34;101351.94;5058204;28;45717;-70
2023/01/14 00:58:22;;;;;;;;;4.33;4.33;;;;;11.20;71.99;101348.50;5058321;28;45348;-72
2023/01/14 01:00:48;;;;;;;;;9.33;7.00;;;;;10.54;71.57;101227.75;5057908;28;45537;-69
2023/01/14 01:03:15;;;;;;;;;9.00;8.25;;;;;11.23;72.08;101345.00;5075185;28;45435;-71
2023/01/14 01:05:40;;;;;;;;;11.75;8.75;;;;;11.25;72.46;101349.56;5068880;28;45277;-70
2023/01/14 01:08:09;;;;;;;;;6.67;5.67;;;;;11.20;72.27;101343.16;5072738;28;45365;-73
2023/01/14 01:10:35;;;;;;;;;9.25;8.00;;;;;11.15;72.13;101336.75;5071081;28;45466;-72
2023/01/14 01:13:02;;;;;;;;;7.33;4.33;;;;;11.18;73.14;101331.47;5076526;28;45493;-72
2023/01/14 01:15:27;;;;;;;;;5.00;3.67;;;;;11.23;72.63;101323.63;5075181;28;45399;-74
2023/01/14 01:17:52;;;;;;;;;4.67;3.33;;;;;11.20;72.26;101308.41;5076252;28;56404;-69
2023/01/14 01:20:19;;;;;;;;;3.00;3.00;;;;;11.24;71.69;101309.41;5075519;28;46047;-69
2023/01/14 01:22:44;;;;;;;;;6.00;3.67;;;;;11.29;72.24;101301.53;5075926;28;46632;-73
2023/01/14 01:25:09;;;;;;;;;5.50;5.50;;;;;11.31;72.63;101299.81;5074520;27;45319;-69
2023/01/14 01:27:35;;;;;;;;;8.67;5.33;;;;;11.34;72.38;101310.59;5074599;28;49122;-67
2023/01/14 01:30:00;;;;;;;;;4.33;3.33;;;;;11.35;72.27;101312.41;5078265;28;45449;-68
2023/01/14 01:32:26;;;;;;;;;11.67;4.33;;;;;11.22;72.05;101281.69;5078805;28;45774;-71
2023/01/14 01:34:51;;;;;;;;;4.00;4.00;;;;;11.30;72.21;101290.88;5074699;28;45505;-69
2023/01/14 01:37:16;;;;;;;;;5.00;4.33;;;;;11.36;71.92;101299.06;5076036;28;45342;-68
2023/01/14 01:39:42;;;;;;;;;4.00;4.00;;;;;11.35;72.14;101307.97;5057381;28;45733;-71
2023/01/14 01:42:13;;;;;;;;;7.33;3.00;;;;;11.13;72.33;101262.66;5075465;28;45555;-70
2023/01/14 01:44:41;;;;;;;;;5.00;5.00;;;;;11.34;72.75;101299.91;5074670;28;45552;-69
2023/01/14 01:47:07;;;;;;;;;5.00;4.33;;;;;11.39;72.17;101300.97;5053658;28;45519;-68
2023/01/14 01:49:35;;;;;;;;;5.33;5.33;;;;;11.36;72.21;101292.81;5074567;27;45489;-68
2023/01/14 01:52:13;;;;;;;;;3.67;3.67;;;;;11.41;72.17;101291.19;5075422;28;45511;-69
2023/01/14 01:54:48;;;;;;;;;5.67;5.67;;;;;11.46;72.12;101300.28;5074829;28;45383;-67
2023/01/14 01:57:16;;;;;;;;;5.00;3.00;;;;;11.49;72.64;101299.47;5074361;27;45596;-69
2023/01/14 01:59:46;;;;;;;;;3.67;3.67;;;;;11.38;72.31;101272.38;5054854;28;45762;-70
2023/01/14 02:02:12;;;;;;;;;8.00;7.50;;;;;11.52;72.82;101289.78;5075983;28;45561;-69
2023/01/14 02:04:37;;;;;;;;;4.00;4.00;;;;;11.47;72.81;101280.69;5056543;28;45618;-72
2023/01/14 02:07:13;;;;;;;;;6.00;5.00;;;;;11.52;73.64;101273.72;5075965;28;45692;-70
2023/01/14 02:09:38;;;;;;;;;5.00;4.00;;;;;11.53;73.69;101270.19;5078217;27;45366;-69
2023/01/14 02:12:19;;;;;;;;;4.00;2.67;;;;;11.58;74.09;101270.31;5088041;27;45429;-71
2023/01/14 02:14:47;;;;;;;;;4.33;4.33;;;;;11.60;73.65;101260.59;5077257;27;45433;-69
2023/01/14 02:17:40;;;;;;;;;3.67;3.67;;;;;11.52;73.17;101230.00;5085353;27;45422;-70
2023/01/14 02:20:07;;;;;;;;;3.00;3.00;;;;;11.68;73.96;101248.34;5075201;27;45429;-71
2023/01/14 02:22:48;;;;;;;;;3.00;1.67;;;;;11.60;74.44;101233.81;5078197;27;45986;-70
2023/01/14 02:26:06;;;;;;;;;2.00;2.00;;;;;11.65;74.25;101228.59;5072357;27;45378;-69
2023/01/14 02:28:53;;;;;;;;;5.67;2.67;;;;;11.66;74.17;101225.94;5058933;27;45560;-70
2023/01/14 02:31:33;;;;;;;;;5.00;3.67;;;;;11.64;74.55;101219.66;5062564;27;45566;-70
2023/01/14 02:34:09;;;;;;;;;3.00;3.00;;;;;11.57;74.22;101209.66;5073189;27;45373;-69
2023/01/14 02:36:59;;;;;;;;;3.33;2.00;;;;;11.57;74.38;101212.31;5089051;27;45341;-71
2023/01/14 02:39:25;;;;;;;;;2.33;2.00;;;;;11.62;74.79;101222.28;5073478;27;45335;-70
2023/01/14 02:45:20;;;;;;;;;5.33;4.00;;;;;11.63;74.51;101223.19;5088063;27;45800;-71
2023/01/14 02:47:47;;;;;;;;;2.00;2.00;;;;;11.63;75.16;101225.84;5071479;27;45493;-71
2023/01/14 02:50:14;;;;;;;;;1.00;1.00;;;;;11.61;74.34;101219.56;5072079;27;45473;-68
2023/01/14 02:52:40;;;;;;;;;2.67;1.00;;;;;11.50;74.45;101197.84;5081013;27;45737;-70
2023/01/14 02:55:32;;;;;;;;;2.00;2.00;;;;;11.60;74.22;101220.44;5100109;27;46444;-71
2023/01/14 02:58:17;;;;;;;;;6.33;3.00;;;;;11.60;73.98;101217.78;5089746;27;45302;-71
2023/01/14 03:00:59;;;;;;;;;2.00;2.00;;;;;11.52;73.82;101188.09;5078977;27;45415;-71
2023/01/14 03:03:49;;;;;;;;;2.00;1.00;;;;;11.65;74.14;101197.41;5082606;27;45509;-71
2023/01/14 03:06:41;;;;;;;;;4.00;1.33;;;;;11.61;73.61;101184.78;5084553;27;46279;-71
2023/01/14 03:09:19;;;;;;;;;1.67;1.67;;;;;11.61;74.25;101190.13;5079040;27;45391;-70
2023/01/14 03:12:18;;;;;;;;;0.33;0.33;;;;;11.60;73.13;101185.66;5090850;27;45510;-69
2023/01/14 03:14:53;;;;;;;;;3.67;0.67;;;;;11.59;73.68;101189.19;5098463;27;45434;-70
2023/01/14 03:17:33;;;;;;;;;2.00;1.00;;;;;11.60;73.65;101174.94;5096691;27;46405;-71
2023/01/14 03:20:16;;;;;;;;;1.67;1.00;;;;;11.58;72.77;101166.88;5098969;27;45444;-70
2023/01/14 03:22:42;;;;;;;;;4.67;1.67;;;;;11.49;73.47;101139.84;5097646;27;45414;-71
2023/01/14 03:25:11;;;;;;;;;1.33;0.00;;;;;11.59;72.31;101149.94;5098771;27;45458;-69
2023/01/14 03:27:39;;;;;;;;;3.67;1.00;;;;;11.60;72.66;101153.53;5096768;27;46538;-69
2023/01/14 03:30:10;;;;;;;;;2.00;2.00;;;;;11.60;72.14;101142.84;5093946;27;45380;-67
2023/01/14 03:32:50;;;;;;;;;2.67;0.33;;;;;11.61;71.43;101136.59;5079829;27;45409;-69
2023/01/14 03:35:23;;;;;;;;;2.00;1.00;;;;;11.59;71.33;101130.31;5094070;27;45530;-70
2023/01/14 03:37:57;;;;;;;;;3.00;2.00;;;;;11.58;72.23;101112.41;5093862;27;46148;-68
2023/01/14 03:40:26;;;;;;;;;5.00;1.00;;;;;11.53;71.99;101095.34;5079807;27;45384;-69
2023/01/14 03:43:02;;;;;;;;;1.00;1.00;;;;;11.50;72.03;101077.44;5096746;27;45368;-69
2023/01/14 03:45:39;;;;;;;;;2.33;1.00;;;;;11.60;71.79;101092.00;5098273;27;45372;-71
2023/01/14 03:48:07;;;;;;;;;1.00;1.00;;;;;11.61;71.58;101086.69;5084742;27;46682;-68
2023/01/14 03:51:07;;;;;;;;;5.00;1.00;;;;;11.64;71.72;101091.19;5095977;27;45495;-68
2023/01/14 03:53:49;;;;;;;;;3.00;2.00;;;;;11.69;71.28;101094.00;5077889;27;45321;-69
2023/01/14 03:56:25;;;;;;;;;3.33;2.00;;;;;11.72;72.23;101086.06;5095567;27;45471;-68
2023/01/14 03:59:01;;;;;;;;;1.67;1.67;;;;;11.69;71.77;101062.78;5089365;27;46350;-69
2023/01/14 04:01:37;;;;;;;;;3.67;1.67;;;;;11.76;70.98;101070.13;5095748;27;45296;-70
2023/01/14 04:04:05;;;;;;;;;7.67;2.33;;;;;11.77;71.34;101077.28;5095297;27;45435;-67
2023/01/14 04:06:31;;;;;;;;;3.00;2.00;;;;;11.79;71.04;101074.63;5096545;27;45545;-68
2023/01/14 04:08:56;;;;;;;;;5.00;4.00;;;;;11.78;71.70;101060.34;5082134;27;46443;-70
2023/01/14 04:11:22;;;;;;;;;1.33;0.00;;;;;11.71;70.50;101030.69;5084917;27;45669;-68
2023/01/14 04:16:31;;;;;;;;;4.00;3.00;;;;;11.88;71.74;101034.72;5080727;27;45396;-70
2023/01/14 04:18:57;;;;;;;;;8.67;4.00;;;;;11.90;70.69;101021.38;5082099;27;45659;-69
2023/01/14 04:21:24;;;;;;;;;5.33;2.00;;;;;11.86;71.13;101001.63;5080981;27;45265;-65
2023/01/14 04:23:49;;;;;;;;;3.00;1.00;;;;;11.91;70.72;101009.78;5075945;27;45549;-67
2023/01/14 04:26:15;;;;;;;;;6.00;3.00;;;;;11.13;70.54;100869.56;5080214;27;45422;-69
2023/01/14 04:28:40;;;;;;;;;3.00;1.00;;;;;11.92;70.18;101006.28;5078440;27;47087;-69
2023/01/14 04:31:06;;;;;;;;;9.00;3.33;;;;;11.90;70.08;101002.66;5077206;27;45398;-69
2023/01/14 04:33:31;;;;;;;;;3.00;0.67;;;;;11.84;69.95;100990.00;5076701;27;45441;-72
2023/01/14 04:35:56;;;;;;;;;4.00;2.00;;;;;11.88;71.33;100991.91;5075906;27;45532;-69
2023/01/14 04:38:22;;;;;;;;;3.33;3.00;;;;;11.84;70.87;100991.78;5079720;27;45508;-71
2023/01/14 04:40:49;;;;;;;;;4.33;2.67;;;;;11.88;70.88;100999.94;5081937;27;45220;-67
2023/01/14 04:43:15;;;;;;;;;4.67;1.67;;;;;11.82;71.06;100980.13;5079506;27;45277;-70
2023/01/14 04:45:40;;;;;;;;;3.67;2.33;;;;;11.91;70.88;100997.38;5081632;27;45377;-68
2023/01/14 04:48:05;;;;;;;;;7.33;2.00;;;;;11.93;70.06;100998.31;5079364;27;47074;-66
2023/01/14 04:50:31;;;;;;;;;3.67;1.00;;;;;11.87;69.71;100974.00;5076194;27;45765;-70
2023/01/14 04:53:07;;;;;;;;;4.00;1.00;;;;;11.90;70.31;100987.47;5076213;27;45856;-71
2023/01/14 04:55:37;;;;;;;;;4.00;1.00;;;;;11.91;70.24;100977.66;5070545;27;45363;-69
2023/01/14 04:58:03;;;;;;;;;4.67;3.00;;;;;11.95;71.06;100972.47;5071651;27;46191;-69
2023/01/14 05:00:28;;;;;;;;;1.00;1.00;;;;;11.97;70.35;100967.16;5059272;28;45478;-70
2023/01/14 05:02:54;;;;;;;;;7.00;5.00;;;;;11.71;70.04;100900.44;5071648;27;45678;-71
2023/01/14 05:05:19;;;;;;;;;4.00;2.00;;;;;11.85;69.86;100916.84;5080575;27;45317;-70
2023/01/14 05:07:45;;;;;;;;;4.67;1.00;;;;;12.02;70.14;100954.78;5076518;27;46232;-70
2023/01/14 05:10:10;;;;;;;;;3.00;2.00;;;;;12.02;70.30;100949.41;5045750;28;46456;-71
2023/01/14 05:12:36;;;;;;;;;9.00;3.00;;;;;11.97;70.35;100935.91;5092845;27;45503;-69
2023/01/14 05:15:01;;;;;;;;;6.33;2.67;;;;;12.01;70.12;100946.69;5090355;27;45424;-69
2023/01/14 05:17:29;;;;;;;;;5.00;4.00;;;;;11.98;69.17;100935.06;5094251;27;45790;-68
2023/01/14 05:19:55;;;;;;;;;1.67;1.00;;;;;12.02;69.32;100948.53;5094800;27;45580;-70
2023/01/14 05:22:20;;;;;;;;;1.00;1.00;;;;;11.98;68.91;100943.09;5076763;27;45364;-72
2023/01/14 05:24:45;;;;;;;;;2.00;0.33;;;;;11.92;68.87;100934.00;5095277;27;45319;-71
2023/01/14 05:27:11;;;;;;;;;4.00;2.00;;;;;11.86;68.89;100921.31;5092204;27;45995;-70
2023/01/14 05:29:38;;;;;;;;;2.33;1.00;;;;;11.91;69.39;100937.50;5096411;27;45416;-69
2023/01/14 05:32:04;;;;;;;;;3.00;1.67;;;;;11.89;69.03;100921.41;5094300;27;45489;-69
2023/01/14 05:34:30;;;;;;;;;7.33;2.00;;;;;11.90;68.73;100916.97;5095117;27;45698;-68
2023/01/14 05:36:56;;;;;;;;;1.33;1.33;;;;;11.89;68.65;100910.69;5094693;27;45530;-72
2023/01/14 05:39:22;;;;;;;;;3.00;2.00;;;;;11.88;68.70;100897.25;5089059;27;45429;-70
2023/01/14 05:47:15;;;;;;;;;4.00;1.00;;;;;11.91;68.99;100871.53;5094881;27;45668;-67
2023/01/14 05:49:40;;;;;;;;;3.33;3.33;;;;;11.90;68.80;100869.69;5094829;27;45585;-71
2023/01/14 05:52:06;;;;;;;;;3.33;2.00;;;;;11.90;69.71;100898.22;5095702;27;45269;-70
2023/01/14 05:54:31;;;;;;;;;1.00;1.00;;;;;11.84;68.78;100865.97;5093004;27;45570;-68
2023/01/14 05:56:57;;;;;;;;;5.00;3.67;;;;;11.79;69.49;100858.72;5090167;27;46832;-69
2023/01/14 05:59:22;;;;;;;;;4.67;1.33;;;;;11.80;69.25;100849.81;5093349;27;45455;-67
2023/01/14 06:07:15;;;;;;;;;3.33;1.00;;;;;11.76;69.18;100828.28;5096086;27;45381;-70
2023/01/14 06:09:41;;;;;;;;;2.33;2.00;;;;;11.73;68.78;100830.91;5094681;27;45474;-69
2023/01/14 06:12:06;;;;;;;;;2.00;2.00;;;;;11.71;69.44;100819.25;5095708;27;45342;-70
2023/01/14 06:14:33;;;;;;;;;1.00;1.00;;;;;11.72;69.63;100821.06;5094927;27;45717;-67
2023/01/14 06:17:02;;;;;;;;;4.00;3.00;;;;;11.77;68.49;100819.41;5096457;27;45582;-67
2023/01/14 06:19:27;;;;;;;;;3.00;0.00;;;;;11.68;68.57;100792.41;5094140;27;45480;-69
2023/01/14 06:21:53;;;;;;;;;2.00;1.00;;;;;11.71;68.47;100793.38;5074835;27;56434;-68
2023/01/14 06:24:18;;;;;;;;;4.67;2.67;;;;;11.45;68.82;100747.34;5095321;27;45499;-70
2023/01/14 06:26:44;;;;;;;;;4.00;1.33;;;;;11.76;68.64;100805.13;5096884;27;46773;-70
2023/01/14 06:29:11;;;;;;;;;1.00;1.00;;;;;11.65;68.11;100793.28;5099061;27;45432;-71
2023/01/14 06:31:38;;;;;;;;;3.67;3.00;;;;;11.73;68.29;100796.09;5096575;27;45660;-69
2023/01/14 06:34:04;;;;;;;;;6.67;1.67;;;;;11.74;68.74;100805.94;5098911;27;45293;-71
2023/01/14 06:36:31;;;;;;;;;1.00;1.00;;;;;11.75;68.47;100794.38;5096298;27;46011;-71
2023/01/14 06:38:57;;;;;;;;;1.00;1.00;;;;;11.74;68.78;100793.47;5096609;27;45438;-68
2023/01/14 06:41:22;;;;;;;;;2.33;2.00;;;;;11.76;69.31;100774.75;5097454;27;45441;-66
2023/01/14 06:43:48;;;;;;;;;1.00;1.00;;;;;11.61;68.88;100741.47;5097162;27;47444;-71
2023/01/14 06:46:15;;;;;;;;;5.00;0.67;;;;;11.75;68.71;100762.28;5089033;27;46488;-70
2023/01/14 06:48:42;;;;;;;;;0.67;0.00;;;;;11.76;68.26;100774.75;5088739;27;45468;-69
2023/01/14 06:51:12;;;;;;;;;3.33;2.33;;;;;11.78;68.59;100767.69;5094172;27;45463;-70
2023/01/14 06:53:38;;;;;;;;;3.00;1.00;;;;;11.76;68.93;100772.09;5094117;27;45479;-70
2023/01/14 06:56:06;;;;;;;;;5.33;4.00;;;;;11.65;68.89;100731.72;5091759;27;46666;-69
2023/01/14 06:58:31;;;;;;;;;4.00;1.00;;;;;11.77;69.61;100763.19;5092768;27;45470;-71
2023/01/14 07:00:57;;;;;;;;;1.67;0.67;;;;;11.75;69.23;100757.81;5093860;27;45551;-69
2023/01/14 07:03:24;;;;;;;;;7.00;1.67;;;;;11.73;68.91;100747.91;5076882;27;45496;-68
2023/01/14 07:05:50;;;;;;;;;4.00;2.00;;;;;11.81;69.16;100743.63;5095379;27;45359;-68
2023/01/14 07:08:15;;;;;;;;;3.67;0.00;;;;;11.80;68.60;100734.72;5094243;27;45338;-67
2023/01/14 07:10:40;;;;;;;;;1.67;1.00;;;;;11.80;69.06;100734.72;5074095;27;59759;-71
2023/01/14 07:13:15;;;;;;;;;6.33;0.67;;;;;11.82;69.06;100745.47;5077605;27;45470;-68
2023/01/14 07:15:42;;;;;;;;;2.33;1.00;;;;;11.69;69.76;100695.22;5094653;27;45360;-72
2023/01/14 07:18:11;;;;;;;;;3.67;1.33;;;;;11.78;69.84;100735.56;5074844;27;45426;-70
2023/01/14 07:20:40;;;;;;;;;3.33;2.00;;;;;11.78;69.97;100735.56;5094216;27;45447;-71
2023/01/14 07:23:06;;;;;;;;;3.33;1.33;;;;;11.77;69.44;100728.41;5090111;27;45543;-69
2023/01/14 07:25:31;;;;;;;;;3.00;3.00;;;;;11.77;70.33;100728.41;5094799;27;46105;-68
2023/01/14 07:27:57;;;;;;;;;1.33;0.33;;;;;11.77;69.72;100723.94;5093672;27;45771;-68
2023/01/14 07:30:23;;;;;;;;;5.33;0.67;;;;;11.76;69.60;100718.56;5097976;27;45442;-69
2023/01/14 07:32:48;;;;;;;;;4.00;2.00;;;;;11.64;70.35;100679.06;5079045;27;45448;-72
2023/01/14 07:35:14;;;;;;;;;2.67;2.00;;;;;11.77;69.54;100710.56;5095305;27;45490;-67
2023/01/14 07:37:39;;;;;;;;;4.67;2.00;;;;;11.74;69.98;100672.13;5091864;27;45556;-69
2023/01/14 07:40:05;;;;;;;;;3.33;2.00;;;;;11.61;70.71;100657.59;5061918;27;45451;-70
2023/01/14 07:42:30;;;;;;;;;1.00;1.00;;;;;11.71;71.74;100680.09;5091206;27;45285;-71
2023/01/14 07:44:56;;;;;;;;;1.33;0.67;;;;;11.64;71.67;100678.16;5107268;27;46156;-69
2023/01/14 07:47:21;;;;;;;;;3.00;1.33;;;;;11.68;72.43;100658.63;5113693;27;45357;-69
2023/01/14 07:49:46;;;;;;;;;1.00;1.00;;;;;11.59;71.31;100653.97;5100271;27;45218;-66
2023/01/14 07:52:15;;;;;;;;;6.00;2.00;;;;;11.67;71.64;100660.41;5095042;27;45492;-69
2023/01/14 07:54:41;;;;;;;;;8.33;6.33;;;;;11.74;71.43;100681.03;5095514;27;45338;-70
2023/01/14 07:57:11;;;;;;;;;1.00;1.00;;;;;11.69;71.49;100645.25;5073224;28;45585;-69
2023/01/14 07:59:38;;;;;;;;;1.00;1.00;;;;;11.79;71.11;100670.44;5095250;27;45522;-69
2023/01/14 08:02:04;;;;;;;;;3.00;2.00;;;;;11.77;71.50;100659.69;5077709;27;45763;-69
2023/01/14 08:04:29;;;;;;;;;1.00;1.00;;;;;11.80;71.42;100658.88;5093163;27;46858;-71
2023/01/14 08:06:58;;;;;;;;;2.00;1.00;;;;;11.74;71.74;100656.06;5101376;27;45448;-69
2023/01/14 08:09:24;;;;;;;;;2.00;2.00;;;;;11.65;71.86;100639.81;5093074;27;45572;-70
2023/01/14 08:11:49;;;;;;;;;0.00;0.00;;;;;11.74;71.71;100645.34;5099704;27;45651;-69
2023/01/14 08:14:14;;;;;;;;;2.00;1.00;;;;;11.73;71.99;100646.22;5099773;27;46537;-71
2023/01/14 08:16:40;;;;;;;;;4.00;1.00;;;;;11.68;72.60;100632.78;5102617;27;58694;-71
2023/01/14 08:19:06;;;;;;;;;0.67;0.00;;;;;11.71;72.51;100627.44;5095051;27;45456;-69
2023/01/14 08:21:32;;;;;;;;;1.00;0.00;;;;;11.66;72.15;100625.56;5088693;27;45695;-68
2023/01/14 08:23:57;;;;;;;;;0.67;0.00;;;;;11.70;72.16;100617.63;5094696;27;45471;-69
2023/01/14 08:26:22;;;;;;;;;1.00;1.00;;;;;11.65;72.68;100605.03;5074698;27;45661;-70
2023/01/14 08:28:49;;;;;;;;;2.00;1.67;;;;;11.72;73.37;100623.03;5075766;27;49261;-69
2023/01/14 08:31:16;;;;;;;;;1.00;1.00;;;;;11.74;72.99;100614.13;5095637;27;45295;-70
2023/01/14 08:33:44;;;;;;;;;1.00;1.00;;;;;11.64;73.12;100601.47;5093690;27;45491;-68
2023/01/14 08:36:15;;;;;;;;;2.67;1.00;;;;;11.72;73.56;100609.66;5095553;27;45449;-68
2023/01/14 08:38:44;;;;;;;;;3.67;1.00;;;;;11.72;73.41;100609.66;5061946;27;45449;-70
2023/01/14 08:41:13;;;;;;;;;0.33;0.33;;;;;11.68;73.05;100589.97;5068756;27;45413;-71
2023/01/14 08:43:39;;;;;;;;;3.00;1.67;;;;;11.70;73.73;100596.22;5098403;27;46125;-69
2023/01/14 08:46:07;;;;;;;;;2.67;1.33;;;;;11.71;73.33;100595.34;5097514;27;45414;-69
2023/01/14 08:48:33;;;;;;;;;4.33;0.00;;;;;11.61;73.30;100571.97;5095136;27;45441;-70
2023/01/14 08:51:03;;;;;;;;;1.67;1.67;;;;;11.75;73.64;100601.69;5095696;27;45476;-72
2023/01/14 08:53:30;;;;;;;;;4.67;3.00;;;;;11.77;73.01;100600.81;5094755;27;46175;-70
2023/01/14 08:55:59;;;;;;;;;2.00;2.00;;;;;11.74;73.31;100575.78;5091164;27;45478;-69
2023/01/14 08:58:27;;;;;;;;;3.67;0.67;;;;;11.69;74.25;100578.34;5088946;27;45445;-69
2023/01/14 09:00:57;;;;;;;;;3.00;2.00;;;;;11.75;74.00;100590.97;5093278;27;45962;-72
2023/01/14 09:03:25;;;;;;;;;0.00;0.00;;;;;11.82;73.19;100600.03;5090106;27;46428;-71
2023/01/14 09:05:55;;;;;;;;;7.67;2.00;;;;;11.84;74.05;100587.56;5097056;27;45465;-71
2023/01/14 09:19:16;;;;;;;;;2.00;1.00;;;;;12.01;73.61;100554.00;5109854;27;45146;-71
2023/01/14 09:21:42;;;;;;;;;3.33;1.67;;;;;11.93;73.53;100531.56;5112232;27;45909;-73
2023/01/14 09:24:07;;;;;;;;;5.00;2.00;;;;;11.92;73.02;100533.31;5110573;27;45271;-72
2023/01/14 09:26:32;;;;;;;;;3.00;2.00;;;;;12.07;72.82;100558.56;5106894;27;44967;-72
2023/01/14 09:28:58;;;;;;;;;2.00;1.33;;;;;12.10;73.65;100538.06;5112089;27;44948;-71
2023/01/14 09:31:23;;;;;;;;;1.33;1.00;;;;;12.08;73.16;100538.94;5108044;27;45387;-72
2023/01/14 09:33:48;;;;;;;;;0.00;0.00;;;;;12.00;73.29;100508.47;5092224;27;46861;-73
2023/01/14 09:36:14;;;;;;;;;3.00;2.00;;;;;12.14;72.88;100541.69;5110314;27;48565;-73
2023/01/14 09:38:39;;;;;;;;;1.00;1.00;;;;;12.14;74.43;100530.97;5105194;27;45067;-71
2023/01/14 09:41:05;;;;;;;;;4.67;1.00;;;;;12.07;74.49;100521.06;5106959;27;45148;-72
2023/01/14 09:43:31;;;;;;;;;1.00;1.00;;;;;12.12;75.08;100528.28;5092661;27;46660;-72
2023/01/14 09:45:59;;;;;;;;;4.00;2.00;;;;;12.09;75.16;100532.69;5102032;27;45918;-73
2023/01/14 09:48:26;;;;;;;;;2.67;2.33;;;;;12.07;73.82;100540.69;5096535;27;45425;-71
2023/01/14 09:51:12;;;;;;;;;3.00;2.67;;;;;12.05;74.93;100514.78;5076928;27;45489;-69
2023/01/14 09:53:59;;;;;;;;;2.33;0.67;;;;;12.11;74.51;100523.81;5094791;27;46184;-71
2023/01/14 09:56:31;;;;;;;;;4.00;3.00;;;;;12.12;73.76;100520.25;5093765;27;45528;-70
2023/01/14 09:59:07;;;;;;;;;1.00;1.00;;;;;12.18;74.28;100524.81;5087560;27;45486;-72
2023/01/14 10:01:46;;;;;;;;;2.33;1.33;;;;;12.19;73.09;100520.34;5095535;27;45504;-71
2023/01/14 10:04:35;;;;;;;;;2.00;2.00;;;;;12.10;73.52;100507.72;5095504;27;46199;-72
2023/01/14 10:07:03;;;;;;;;;2.00;1.67;;;;;12.17;74.24;100501.59;5095558;27;45407;-70
2023/01/14 10:09:39;;;;;;;;;2.33;1.00;;;;;12.00;73.77;100471.88;5095912;27;45500;-68
2023/01/14 10:12:09;;;;;;;;;2.00;2.00;;;;;12.27;73.24;100513.34;5083094;27;45190;-71
2023/01/14 10:14:47;;;;;;;;;1.00;1.00;;;;;12.15;73.58;100488.16;5080290;27;46340;-71
2023/01/14 10:17:18;;;;;;;;;6.00;3.00;;;;;12.31;73.94;100500.03;5081668;27;45529;-72
2023/01/14 10:19:48;;;;;;;;;5.67;5.67;;;;;12.34;73.75;100491.13;5081422;27;45384;-70
2023/01/14 10:22:19;;;;;;;;;2.67;1.33;;;;;12.38;73.44;100492.09;5077416;27;45390;-72
2023/01/14 10:24:46;;;;;;;;;3.33;1.67;;;;;12.37;73.24;100474.19;5073648;27;46159;-70
2023/01/14 10:27:17;;;;;;;;;1.00;0.33;;;;;12.43;73.43;100466.25;5071704;27;45473;-70
2023/01/14 10:29:45;;;;;;;;;3.67;2.00;;;;;12.46;73.42;100466.31;5087412;27;45315;-70
2023/01/14 10:32:15;;;;;;;;;5.00;4.00;;;;;12.42;73.08;100451.06;5083907;27;45540;-70
2023/01/14 10:34:42;;;;;;;;;0.67;0.00;;;;;12.51;73.38;100460.13;5078427;27;45430;-69
2023/01/14 10:37:10;;;;;;;;;1.67;1.67;;;;;12.53;72.63;100468.19;5082725;27;45489;-70
2023/01/14 10:39:39;;;;;;;;;5.00;2.00;;;;;12.55;72.96;100463.75;5084551;27;45538;-69
2023/01/14 10:42:05;;;;;;;;;0.67;0.67;;;;;12.54;74.14;100473.56;5076956;27;45350;-70
2023/01/14 10:44:33;;;;;;;;;4.33;2.00;;;;;12.54;73.64;100472.69;5068089;28;47557;-72
2023/01/14 10:47:08;;;;;;;;;5.00;4.00;;;;;12.50;73.69;100461.00;5077802;27;45543;-69
2023/01/14 10:49:54;;;;;;;;;2.00;2.00;;;;;12.50;74.86;100452.94;5080595;27;45481;-70
2023/01/14 10:52:20;;;;;;;;;4.33;3.00;;;;;12.48;74.60;100445.78;5074591;27;45488;-70
2023/01/14 10:55:08;;;;;;;;;4.00;2.33;;;;;12.22;74.36;100390.06;5079215;27;45459;-69
2023/01/14 10:57:38;;;;;;;;;3.67;2.67;;;;;12.52;74.78;100434.22;5065603;27;45520;-72
2023/01/14 11:00:08;;;;;;;;;3.00;2.00;;;;;12.52;74.63;100448.53;5073715;27;45413;-72
2023/01/14 11:02:37;;;;;;;;;4.00;2.33;;;;;12.51;74.63;100457.44;5085824;27;45709;-68
2023/01/14 11:05:26;;;;;;;;;2.67;1.67;;;;;12.49;74.29;100437.78;5077700;27;45406;-69
2023/01/14 11:07:54;;;;;;;;;7.00;2.67;;;;;12.45;75.02;100414.47;5077831;27;45472;-71
2023/01/14 11:10:23;;;;;;;;;3.33;3.00;;;;;12.31;75.34;100384.84;5082095;27;45434;-71
2023/01/14 11:12:50;;;;;;;;;4.67;3.33;;;;;12.52;75.26;100412.78;5081295;27;45655;-71
2023/01/14 11:15:33;;;;;;;;;1.67;1.67;;;;;12.53;74.69;100406.56;5064978;27;46077;-67
2023/01/14 11:18:33;;;;;;;;;5.33;5.33;;;;;12.53;75.22;100386.00;5075200;27;45400;-69
2023/01/14 11:21:21;;;;;;;;;3.00;3.00;;;;;12.53;74.85;100377.97;5077350;27;45542;-70
2023/01/14 11:23:58;;;;;;;;;4.67;3.00;;;;;12.60;75.60;100386.97;5056095;27;45612;-69
2023/01/14 11:26:32;;;;;;;;;6.67;4.00;;;;;12.61;75.14;100372.72;5077117;27;45447;-72
2023/01/14 11:29:41;;;;;;;;;4.00;4.00;;;;;12.64;74.71;100364.72;5077523;27;45597;-72
2023/01/14 11:32:12;;;;;;;;;8.00;7.00;;;;;12.67;75.16;100356.72;5010014;28;45455;-70
2023/01/14 11:34:46;;;;;;;;;3.33;2.33;;;;;12.70;75.23;100343.34;5009185;28;45682;-71
2023/01/14 11:37:15;;;;;;;;;5.00;3.33;;;;;12.72;75.17;100335.31;5051359;27;46540;-69
2023/01/14 11:39:51;;;;;;;;;6.67;4.33;;;;;12.68;75.11;100325.44;5077167;27;45473;-67
2023/01/14 11:42:38;;;;;;;;;2.00;2.00;;;;;12.68;75.34;100325.44;5066184;27;45443;-70
2023/01/14 11:45:12;;;;;;;;;5.67;4.00;;;;;12.66;75.82;100336.13;5079345;27;45172;-69
2023/01/14 11:47:53;;;;;;;;;3.00;2.00;;;;;12.66;75.16;100329.88;5077996;27;45382;-70
2023/01/14 11:50:30;;;;;;;;;7.00;7.00;;;;;12.66;75.69;100325.41;5095241;27;45541;-71
2023/01/14 11:53:08;;;;;;;;;6.00;5.33;;;;;12.67;75.91;100324.53;5086745;27;45923;-71
2023/01/14 11:55:39;;;;;;;;;3.67;3.67;;;;;12.69;75.26;100304.00;5092261;27;45322;-70
2023/01/14 11:58:25;;;;;;;;;6.00;3.33;;;;;12.72;76.20;100305.84;5076087;27;46496;-71
2023/01/14 12:01:15;;;;;;;;;3.00;3.00;;;;;12.74;75.31;100282.63;5079194;27;45540;-70
2023/01/14 12:03:47;;;;;;;;;3.67;3.67;;;;;12.48;75.68;100236.78;5075541;27;46126;-71
2023/01/14 12:06:16;;;;;;;;;5.00;3.67;;;;;12.71;75.09;100261.16;5083887;27;45447;-68